Time;durP1;ratioP1;P1;durP2;ratioP2;P2;SDS_P1;SDS_P2;PMS_P1;PMS_P2;Temp;Humidity;BMP_temperature;BMP_pressure;BME280_temperature;BME280_humidity;BME280_pressure;Samples;Min_cycle;Max_cycle;Signal;HPM_P1;HPM_P2
2022/12/03 00:05:13;;;;;;;;;;;;;;;;;;;;;
2022/12/03 00:30:22;;;;;;;51.22;24.17;;;12.00;58.70;;;;;;6177837;23;20027;-83
2022/12/03 00:36:47;;;;;;;;;;;;;;;;;;;;;
2022/12/03 00:40:12;;;;;;;55.45;25.67;;;11.90;59.10;;;;;;6037891;23;20015;-82
2022/12/03 00:43:37;;;;;;;52.95;24.25;;;12.00;59.00;;;;;;5898466;24;20018;-83
2022/12/03 00:53:27;;;;;;;43.50;23.13;;;12.10;58.30;;;;;;5714993;25;20023;-82
2022/12/03 00:56:54;;;;;;;;;;;;;;;;;;;;;
2022/12/03 01:00:03;;;;;;;45.65;23.45;;;11.90;58.70;;;;;;5663770;25;20092;-81
2022/12/03 01:35:08;;;;;;;49.88;24.42;;;11.80;59.20;;;;;;5851070;24;20070;-82
2022/12/03 01:38:37;;;;;;;52.08;24.42;;;11.70;59.10;;;;;;5834900;24;20015;-81
2022/12/03 01:41:03;;;;;;;46.38;22.92;;;11.70;59.30;;;;;;5769440;24;20022;-82
2022/12/03 01:43:31;;;;;;;50.40;24.05;;;11.40;59.60;;;;;;5758625;24;20454;-82
2022/12/03 01:45:57;;;;;;;48.53;23.75;;;11.40;59.80;;;;;;5767218;24;20428;-82
2022/12/03 01:48:32;;;;;;;50.40;24.23;;;11.40;60.20;;;;;;5871676;24;20010;-82
2022/12/03 01:51:12;;;;;;;51.45;24.38;;;11.10;61.00;;;;;;5870994;24;20013;-83
2022/12/03 01:53:59;;;;;;;53.30;24.83;;;11.10;60.70;;;;;;5870671;24;20551;-83
2022/12/03 01:56:34;;;;;;;59.13;24.08;;;11.10;60.20;;;;;;5870058;24;20010;-83
2022/12/03 01:59:43;;;;;;;56.72;25.17;;;11.10;60.70;;;;;;5868140;24;20010;-85
2022/12/03 02:02:34;;;;;;;47.80;24.05;;;11.50;59.70;;;;;;5841213;24;20103;-82
2022/12/03 02:08:40;;;;;;;53.08;23.52;;;11.50;59.60;;;;;;5844717;24;20049;-80
2022/12/03 02:11:23;;;;;;;46.63;22.77;;;11.10;60.30;;;;;;5885864;24;20098;-81
2022/12/03 02:14:05;;;;;;;45.38;23.17;;;10.60;61.90;;;;;;5930143;24;20125;-83
2022/12/03 02:16:33;;;;;;;44.05;22.98;;;10.00;63.00;;;;;;5952979;24;20526;-82
2022/12/03 02:19:29;;;;;;;51.47;24.23;;;9.70;64.40;;;;;;5926335;24;20351;-82
2022/12/03 02:21:55;;;;;;;47.35;22.13;;;9.80;64.40;;;;;;5929730;24;20438;-81
2022/12/03 02:24:30;;;;;;;51.50;24.17;;;9.70;64.00;;;;;;5952785;23;20015;-82
2022/12/03 02:26:58;;;;;;;48.63;24.33;;;9.90;64.70;;;;;;5952873;24;20017;-81
2022/12/03 02:29:24;;;;;;;57.75;24.20;;;10.20;63.30;;;;;;5953351;24;20008;-81
2022/12/03 02:31:50;;;;;;;50.85;24.83;;;10.40;63.40;;;;;;5930290;24;20022;-80
2022/12/03 02:34:49;;;;;;;48.60;24.30;;;10.60;62.50;;;;;;5951599;24;20020;-82
2022/12/03 02:37:19;;;;;;;58.47;27.05;;;10.80;62.40;;;;;;5951685;24;20024;-82
2022/12/03 02:39:50;;;;;;;53.00;23.95;;;10.90;61.80;;;;;;5925825;24;20009;-83
2022/12/03 02:42:50;;;;;;;52.42;25.20;;;10.70;61.80;;;;;;5925179;24;20021;-82
2022/12/03 02:45:28;;;;;;;55.90;25.83;;;10.50;62.60;;;;;;5926158;24;20005;-82
2022/12/03 02:47:59;;;;;;;54.92;25.60;;;10.60;62.90;;;;;;5925169;24;20013;-80
2022/12/03 02:50:47;;;;;;;58.53;25.95;;;10.90;62.10;;;;;;5926911;24;20162;-81
2022/12/03 02:53:17;;;;;;;52.55;25.05;;;11.10;61.10;;;;;;5907631;24;20005;-81
2022/12/03 02:55:43;;;;;;;67.93;28.30;;;11.40;60.60;;;;;;5926776;24;20393;-83
2022/12/03 02:58:10;;;;;;;61.25;25.85;;;11.70;60.30;;;;;;5918637;24;20013;-81
2022/12/03 03:00:37;;;;;;;51.28;23.35;;;11.90;59.40;;;;;;5926705;24;20013;-80
2022/12/03 03:06:14;;;;;;;55.03;25.08;;;11.50;60.80;;;;;;5926971;24;20012;-81
2022/12/03 03:08:41;;;;;;;54.08;25.35;;;11.40;60.50;;;;;;5926989;24;20070;-80
2022/12/03 03:11:24;;;;;;;55.30;25.85;;;11.30;60.80;;;;;;5927233;24;20332;-82
2022/12/03 03:17:18;;;;;;;55.70;25.95;;;11.30;61.00;;;;;;6010153;23;20014;-82
2022/12/03 03:19:56;;;;;;;55.65;26.17;;;11.30;61.00;;;;;;6010321;23;20485;-83
2022/12/03 03:25:44;;;;;;;53.17;24.80;;;11.70;59.50;;;;;;6001900;23;20104;-82
2022/12/03 03:28:10;;;;;;;62.40;25.73;;;11.80;59.80;;;;;;6009960;23;20008;-83
2022/12/03 03:30:38;;;;;;;59.13;25.60;;;12.00;59.30;;;;;;6010381;23;20444;-82
2022/12/03 03:33:10;;;;;;;60.45;27.15;;;12.10;59.30;;;;;;6013184;23;20020;-81
2022/12/03 03:35:37;;;;;;;53.88;24.30;;;12.10;59.30;;;;;;6009718;23;20039;-81
2022/12/03 03:38:34;;;;;;;56.00;26.17;;;12.10;59.10;;;;;;6009666;23;20019;-80
2022/12/03 03:41:52;;;;;;;61.38;24.83;;;12.20;58.80;;;;;;5953183;24;20016;-81
2022/12/03 03:44:27;;;;;;;52.40;25.10;;;12.40;58.40;;;;;;5951866;24;20072;-81
2022/12/03 03:46:54;;;;;;;57.00;24.90;;;12.30;58.70;;;;;;5930809;24;20040;-83
2022/12/03 03:49:20;;;;;;;55.90;27.05;;;12.30;58.80;;;;;;5930286;24;20004;-82
2022/12/03 03:51:46;;;;;;;68.53;25.85;;;12.30;58.80;;;;;;5931088;24;20013;-81
2022/12/03 03:54:12;;;;;;;64.38;27.17;;;12.40;58.40;;;;;;5954063;24;20391;-80
2022/12/03 03:56:38;;;;;;;56.75;26.27;;;12.40;58.20;;;;;;5954030;24;20355;-82
2022/12/03 03:59:27;;;;;;;64.15;27.65;;;12.50;58.40;;;;;;6004086;23;20011;-82
2022/12/03 04:01:53;;;;;;;56.88;25.98;;;12.50;58.00;;;;;;6009119;23;20015;-82
2022/12/03 04:04:21;;;;;;;56.90;25.92;;;12.60;57.60;;;;;;5985786;23;20011;-81
2022/12/03 04:07:37;;;;;;;58.65;27.73;;;12.70;57.80;;;;;;6009978;23;20094;-82
2022/12/03 04:13:27;;;;;;;56.30;25.20;;;12.70;57.80;;;;;;6009846;23;20382;-83
2022/12/03 04:19:14;;;;;;;57.95;26.00;;;12.60;57.60;;;;;;6119717;23;20101;-83
2022/12/03 04:24:48;;;;;;;56.20;25.73;;;12.50;58.40;;;;;;6126797;23;20092;-82
2022/12/03 04:30:20;;;;;;;55.55;26.45;;;12.40;58.10;;;;;;6126188;23;20069;-79
2022/12/03 04:36:06;;;;;;;56.83;26.05;;;12.40;58.20;;;;;;6126524;23;20392;-82
2022/12/03 04:38:32;;;;;;;59.28;26.58;;;12.40;58.10;;;;;;6101442;23;20009;-82
2022/12/03 04:41:00;;;;;;;54.45;26.20;;;12.20;58.00;;;;;;6101173;23;20101;-82
2022/12/03 04:47:46;;;;;;;57.63;27.42;;;12.20;58.40;;;;;;6037600;23;20014;-80
2022/12/03 04:50:55;;;;;;;63.00;26.90;;;12.10;58.70;;;;;;5955850;24;20015;-80
2022/12/03 05:00:52;;;;;;;71.80;51.42;;;11.90;59.20;;;;;;5897708;24;20020;-82
2022/12/03 05:03:49;;;;;;;54.95;27.80;;;11.80;59.20;;;;;;5897538;24;20339;-81
2022/12/03 05:13:19;;;;;;;64.05;26.70;;;11.70;60.20;;;;;;5895804;24;20017;-82
2022/12/03 05:22:39;;;;;;;;;;;;;;;;;;;;;
2022/12/03 05:25:20;;;;;;;63.67;26.45;;;12.20;58.60;;;;;;5884421;24;20080;-80
2022/12/03 05:28:19;;;;;;;;;;;;;;;;;;;;;
2022/12/03 05:30:58;;;;;;;54.38;25.83;;;12.30;58.60;;;;;;5898179;24;20084;-82
2022/12/03 05:33:53;;;;;;;57.40;26.00;;;12.10;58.80;;;;;;5892088;24;20101;-82
2022/12/03 05:36:19;;;;;;;54.30;24.92;;;12.10;58.80;;;;;;5858280;24;20037;-82
2022/12/03 05:38:45;;;;;;;60.50;25.00;;;12.00;59.00;;;;;;5953185;24;20021;-80
2022/12/03 05:44:03;;;;;;;59.35;26.83;;;11.70;59.90;;;;;;5844389;24;20464;-80
2022/12/03 05:46:28;;;;;;;58.03;25.08;;;11.60;60.00;;;;;;5843445;24;20016;-81
2022/12/03 05:48:54;;;;;;;50.65;24.77;;;11.50;59.80;;;;;;5844951;24;20094;-79
2022/12/03 05:55:21;;;;;;;48.45;23.17;;;11.20;60.90;;;;;;5719808;25;20379;-82
2022/12/03 06:01:43;;;;;;;63.42;26.13;;;11.40;60.30;;;;;;5687346;25;20032;-83
2022/12/03 06:04:59;;;;;;;48.72;24.35;;;11.50;60.20;;;;;;5686748;25;20009;-82
2022/12/03 06:11:29;;;;;;;56.78;25.27;;;11.90;59.20;;;;;;5687987;25;20100;-82
2022/12/03 06:14:09;;;;;;;59.35;24.92;;;12.00;59.00;;;;;;5688553;25;20813;-84
2022/12/03 06:24:11;;;;;;;52.70;24.27;;;12.30;58.50;;;;;;5790865;24;20049;-83
2022/12/03 06:30:59;;;;;;;51.78;22.75;;;11.80;59.00;;;;;;5757629;24;20015;-84
2022/12/03 06:37:45;;;;;;;49.85;23.23;;;11.50;59.90;;;;;;5868611;24;20029;-81
2022/12/03 06:40:10;;;;;;;48.72;24.05;;;11.50;60.20;;;;;;5872020;24;20018;-81
2022/12/03 06:42:36;;;;;;;47.92;22.88;;;11.60;59.90;;;;;;5870402;24;20014;-81
2022/12/03 06:45:02;;;;;;;46.15;22.98;;;11.80;59.20;;;;;;5870201;24;20014;-81
2022/12/03 06:47:27;;;;;;;51.40;25.33;;;12.00;58.90;;;;;;5870742;24;20452;-82
2022/12/03 06:49:53;;;;;;;46.13;23.20;;;12.00;58.90;;;;;;5870987;24;20098;-83
2022/12/03 06:52:59;;;;;;;49.75;24.52;;;12.00;59.10;;;;;;5871152;24;20020;-84
2022/12/03 06:55:25;;;;;;;46.67;22.90;;;11.70;59.70;;;;;;5816453;24;20037;-82
2022/12/03 06:57:51;;;;;;;43.25;22.05;;;11.70;60.00;;;;;;5795317;24;20357;-83
2022/12/03 07:00:17;;;;;;;45.13;22.00;;;11.80;59.10;;;;;;5838982;24;20039;-81
2022/12/03 07:02:43;;;;;;;51.42;23.05;;;11.40;60.90;;;;;;5794603;24;20022;-82
2022/12/03 07:05:09;;;;;;;49.25;24.55;;;11.60;60.30;;;;;;5815704;24;20011;-82
2022/12/03 07:07:35;;;;;;;48.80;23.65;;;11.90;59.30;;;;;;5816007;24;20015;-81
2022/12/03 07:10:07;;;;;;;56.72;30.70;;;12.10;59.10;;;;;;5835883;24;20502;-82
2022/12/03 07:12:50;;;;;;;50.60;28.60;;;12.40;58.80;;;;;;5875054;24;20040;-81
2022/12/03 07:15:16;;;;;;;55.90;29.83;;;12.50;58.00;;;;;;5873934;24;20028;-82
2022/12/03 07:17:41;;;;;;;55.85;31.00;;;12.60;57.90;;;;;;5896266;24;20005;-82
2022/12/03 07:20:15;;;;;;;48.08;25.05;;;12.60;57.70;;;;;;5927960;24;20040;-83
2022/12/03 07:22:41;;;;;;;49.20;24.20;;;12.60;57.90;;;;;;5952831;24;20016;-82
2022/12/03 07:25:07;;;;;;;43.63;22.23;;;12.50;58.00;;;;;;5952249;24;20009;-84
2022/12/03 07:27:33;;;;;;;48.65;23.98;;;12.60;57.60;;;;;;5953220;24;20351;-82
2022/12/03 07:29:59;;;;;;;43.35;23.45;;;12.60;57.60;;;;;;5952631;24;20509;-83
2022/12/03 07:32:24;;;;;;;48.60;24.40;;;12.60;57.40;;;;;;6056790;23;20006;-82
2022/12/03 07:34:50;;;;;;;46.75;25.00;;;12.60;57.80;;;;;;6125904;23;20022;-82
2022/12/03 07:37:16;;;;;;;49.28;25.33;;;12.60;58.00;;;;;;6101202;23;20006;-82
2022/12/03 07:39:41;;;;;;;52.83;27.52;;;12.70;57.70;;;;;;6101694;23;20006;-82
2022/12/03 07:42:08;;;;;;;76.20;34.75;;;12.80;57.90;;;;;;6101539;23;20060;-80
2022/12/03 07:44:34;;;;;;;55.45;27.70;;;12.90;57.60;;;;;;6101458;23;20009;-79
2022/12/03 07:47:00;;;;;;;51.75;25.85;;;13.00;57.20;;;;;;6101234;23;20009;-81
2022/12/03 07:49:25;;;;;;;52.53;25.80;;;13.10;57.00;;;;;;6127662;23;19997;-81
2022/12/03 07:51:55;;;;;;;43.30;23.58;;;13.00;56.90;;;;;;6100989;23;20010;-81
2022/12/03 07:54:22;;;;;;;42.58;23.40;;;12.90;57.20;;;;;;6102072;23;20038;-82
2022/12/03 07:56:52;;;;;;;44.65;24.00;;;12.50;57.80;;;;;;6101054;23;20013;-81
2022/12/03 07:59:18;;;;;;;46.15;23.33;;;12.30;58.70;;;;;;6100972;23;20014;-81
2022/12/03 08:01:44;;;;;;;44.95;23.85;;;12.30;58.80;;;;;;6127007;23;20084;-82
2022/12/03 08:04:13;;;;;;;43.42;22.08;;;12.40;59.40;;;;;;6101077;23;20009;-81
2022/12/03 08:06:58;;;;;;;46.03;22.00;;;12.50;58.40;;;;;;6100834;23;20016;-82
2022/12/03 08:12:53;;;;;;;41.72;21.50;;;12.20;58.70;;;;;;6127100;23;20013;-81
2022/12/03 08:15:24;;;;;;;43.05;21.88;;;12.10;58.80;;;;;;6127332;23;20032;-81
2022/12/03 08:17:57;;;;;;;;;;;12.10;58.90;;;;;;6127871;23;20006;-82
2022/12/03 08:20:31;;;;;;;40.97;21.70;;;12.10;58.80;;;;;;6101661;23;19901;-82
2022/12/03 08:23:13;;;;;;;40.72;23.25;;;12.00;58.80;;;;;;6127110;23;20010;-81
2022/12/03 08:27:02;;;;;;;;;;;;;;;;;;;;;
2022/12/03 08:29:41;;;;;;;43.45;22.30;;;11.50;60.60;;;;;;6038375;23;20094;-82
2022/12/03 08:32:30;;;;;;;42.58;22.45;;;11.70;60.00;;;;;;6038214;23;20007;-81
2022/12/03 08:34:58;;;;;;;43.42;22.45;;;12.10;59.10;;;;;;6016882;23;20022;-82
2022/12/03 08:43:52;;;;;;;40.72;22.90;;;12.40;58.70;;;;;;6038113;23;20425;-82
2022/12/03 08:47:08;;;;;;;44.97;23.90;;;12.50;58.80;;;;;;6037508;23;20046;-82
2022/12/03 08:56:25;;;;;;;;;;;12.90;57.90;;;;;;5899258;24;20012;-82
2022/12/03 08:59:58;;;;;;;45.20;21.60;;;12.90;58.20;;;;;;5898726;24;19910;-82
2022/12/03 09:02:31;;;;;;;47.15;23.48;;;13.00;57.70;;;;;;5821520;24;20021;-82
2022/12/03 09:12:13;;;;;;;44.58;24.80;;;13.10;56.10;;;;;;5714135;25;20117;-82
2022/12/03 09:18:49;;;;;;;49.70;26.55;;;12.90;58.00;;;;;;5714540;25;20109;-82
2022/12/03 09:25:21;;;;;;;41.65;21.67;;;13.10;56.70;;;;;;5688496;25;20091;-82
2022/12/03 09:28:51;;;;;;;39.42;22.05;;;12.80;57.50;;;;;;5764968;24;20087;-82
2022/12/03 09:32:26;;;;;;;;;;;;;;;;;;;;;
2022/12/03 09:34:52;;;;;;;40.88;21.63;;;12.60;58.10;;;;;;5688045;25;20107;-83
2022/12/03 09:40:59;;;;;;;39.10;21.00;;;13.10;57.60;;;;;;5812803;24;20063;-84
2022/12/03 09:58:39;;;;;;;43.65;21.38;;;13.30;57.60;;;;;;5819069;24;20076;-84
2022/12/03 10:04:40;;;;;;;39.95;21.70;;;13.80;56.40;;;;;;5873241;24;20048;-83
2022/12/03 10:28:14;;;;;;;47.28;26.98;;;14.00;55.70;;;;;;5727999;24;20057;-83
2022/12/03 10:31:31;;;;;;;43.80;24.35;;;13.80;56.40;;;;;;5741389;25;20008;-83
2022/12/03 10:34:34;;;;;;;38.20;21.80;;;13.60;57.30;;;;;;5666841;24;20010;-82
2022/12/03 10:37:10;;;;;;;39.05;22.77;;;13.50;57.20;;;;;;5665340;25;20155;-83
2022/12/03 10:39:54;;;;;;;41.65;22.98;;;13.60;57.70;;;;;;5664598;25;20013;-83
2022/12/03 10:42:20;;;;;;;41.58;24.05;;;13.80;57.10;;;;;;5708972;25;20032;-84
2022/12/03 10:44:46;;;;;;;39.40;22.90;;;13.50;57.20;;;;;;5741092;25;20012;-83
2022/12/03 10:47:13;;;;;;;39.08;22.67;;;13.40;58.00;;;;;;5740298;25;20016;-83
2022/12/03 10:49:41;;;;;;;36.08;21.55;;;12.90;58.30;;;;;;5791781;24;20014;-82
2022/12/03 10:52:21;;;;;;;44.13;23.38;;;12.50;60.00;;;;;;5931723;24;20075;-83
2022/12/03 10:54:48;;;;;;;40.00;22.23;;;12.20;60.40;;;;;;5959404;24;20480;-82
2022/12/03 10:57:14;;;;;;;40.88;23.50;;;12.10;60.70;;;;;;5982973;24;20019;-83
2022/12/03 10:59:41;;;;;;;39.33;22.98;;;12.40;61.00;;;;;;5959471;24;20000;-82
2022/12/03 11:02:27;;;;;;;39.22;22.90;;;12.60;60.40;;;;;;5959256;24;20043;-83
2022/12/03 11:04:53;;;;;;;38.75;22.15;;;12.80;60.20;;;;;;5982559;24;20004;-83
2022/12/03 11:07:21;;;;;;;40.13;23.33;;;12.90;59.60;;;;;;5959556;24;20008;-82
2022/12/03 11:09:50;;;;;;;46.53;23.13;;;12.90;59.40;;;;;;5987369;23;20044;-81
2022/12/03 11:12:25;;;;;;;41.38;22.13;;;12.90;59.40;;;;;;6102157;23;20005;-84
2022/12/03 11:14:53;;;;;;;40.47;22.40;;;12.70;60.20;;;;;;6102381;23;20061;-81
2022/12/03 11:17:50;;;;;;;38.30;22.75;;;12.50;60.50;;;;;;6102359;23;20002;-82
2022/12/03 11:20:19;;;;;;;39.83;23.45;;;12.80;60.10;;;;;;6102177;23;20006;-82
2022/12/03 11:22:58;;;;;;;40.38;22.92;;;12.90;60.00;;;;;;6102079;23;20014;-83
2022/12/03 11:25:23;;;;;;;40.28;23.13;;;13.20;59.20;;;;;;6102070;23;20446;-83
2022/12/03 11:28:13;;;;;;;49.63;25.15;;;13.70;58.50;;;;;;6100649;23;20007;-83
2022/12/03 11:30:52;;;;;;;42.13;24.35;;;13.90;58.10;;;;;;6102214;23;20092;-83
2022/12/03 11:33:31;;;;;;;42.40;23.73;;;14.10;57.80;;;;;;6101681;23;20420;-83
2022/12/03 11:36:02;;;;;;;51.50;30.20;;;14.20;57.70;;;;;;6109044;23;20025;-83
2022/12/03 11:38:39;;;;;;;77.57;36.85;;;14.40;57.40;;;;;;6101920;23;20092;-83
2022/12/03 11:41:10;;;;;;;56.75;31.75;;;14.50;57.30;;;;;;6101514;23;20017;-83
2022/12/03 11:43:51;;;;;;;54.03;30.33;;;14.70;56.80;;;;;;6101769;23;20006;-83
2022/12/03 11:46:36;;;;;;;49.83;27.58;;;15.00;56.30;;;;;;6102050;23;20028;-83
2022/12/03 11:49:24;;;;;;;37.78;22.60;;;15.20;56.10;;;;;;6127682;23;20002;-83
2022/12/03 11:51:50;;;;;;;38.60;22.65;;;15.10;55.80;;;;;;5958855;24;20471;-83
2022/12/03 11:54:18;;;;;;;40.00;24.10;;;15.20;55.60;;;;;;5982463;24;20145;-82
2022/12/03 11:56:47;;;;;;;35.03;21.77;;;15.30;55.70;;;;;;5981779;23;20330;-83
2022/12/03 11:59:13;;;;;;;37.83;23.97;;;15.20;55.30;;;;;;5982220;24;20031;-83
2022/12/03 12:01:40;;;;;;;34.70;21.67;;;15.10;55.70;;;;;;5982226;24;20326;-83
2022/12/03 12:04:24;;;;;;;34.47;22.10;;;15.10;56.00;;;;;;5982547;24;20005;-82
2022/12/03 12:06:50;;;;;;;40.38;24.13;;;15.30;55.80;;;;;;5982184;24;20008;-84
2022/12/03 12:09:49;;;;;;;38.30;24.10;;;15.60;55.60;;;;;;5981970;24;20334;-83
2022/12/03 12:12:24;;;;;;;39.78;22.85;;;15.50;55.60;;;;;;5956684;24;20072;-83
2022/12/03 12:14:50;;;;;;;36.45;22.20;;;15.60;55.70;;;;;;5979861;24;20069;-81
2022/12/03 12:17:48;;;;;;;35.53;21.23;;;15.50;55.30;;;;;;5980570;24;20004;-81
2022/12/03 12:20:23;;;;;;;34.72;21.50;;;15.30;55.30;;;;;;5843546;24;20015;-83
2022/12/03 12:22:50;;;;;;;37.97;22.83;;;15.30;55.90;;;;;;5842669;24;20022;-84
2022/12/03 12:25:36;;;;;;;35.67;21.85;;;15.50;55.70;;;;;;5821047;24;20068;-84
2022/12/03 12:28:02;;;;;;;33.22;21.88;;;15.50;55.80;;;;;;5857282;24;20109;-82
2022/12/03 12:30:27;;;;;;;35.03;21.63;;;15.40;55.40;;;;;;5952068;24;20008;-84
2022/12/03 12:33:22;;;;;;;36.17;21.50;;;15.10;55.80;;;;;;5952258;24;20084;-82
2022/12/03 12:35:47;;;;;;;40.75;22.40;;;14.70;57.10;;;;;;5957100;24;20067;-84
2022/12/03 12:38:19;;;;;;;33.30;21.60;;;14.70;57.30;;;;;;5979826;24;20028;-84
2022/12/03 12:40:48;;;;;;;35.47;21.30;;;14.70;57.00;;;;;;5957352;24;20079;-84
2022/12/03 12:43:21;;;;;;;28.90;19.67;;;14.90;57.30;;;;;;5957387;24;20079;-84
2022/12/03 12:45:47;;;;;;;34.35;20.15;;;15.00;56.60;;;;;;5981060;24;20012;-85
2022/12/03 12:48:30;;;;;;;28.17;19.08;;;15.20;56.90;;;;;;5956451;24;20016;-85
2022/12/03 12:51:08;;;;;;;25.65;17.58;;;15.00;56.90;;;;;;5956990;24;20104;-85
2022/12/03 12:53:35;;;;;;;28.85;17.88;;;15.10;56.80;;;;;;5957065;24;20119;-83
2022/12/03 12:56:18;;;;;;;28.92;17.45;;;15.00;56.60;;;;;;6040111;23;20006;-83
2022/12/03 12:58:44;;;;;;;27.58;17.30;;;15.00;56.70;;;;;;6099975;23;20060;-83
2022/12/03 13:01:20;;;;;;;25.80;15.77;;;14.80;56.60;;;;;;6122826;23;20391;-80
2022/12/03 13:03:50;;;;;;;26.25;17.60;;;14.40;56.90;;;;;;6099265;23;20010;-82
2022/12/03 13:06:16;;;;;;;30.52;18.83;;;14.00;57.50;;;;;;6099171;23;20006;-82
2022/12/03 13:08:45;;;;;;;26.88;16.55;;;13.70;57.70;;;;;;6099603;23;20014;-84
2022/12/03 13:11:23;;;;;;;30.33;19.33;;;13.50;58.20;;;;;;6099096;23;20443;-82
2022/12/03 13:13:49;;;;;;;30.25;17.90;;;13.50;58.60;;;;;;6125261;23;20006;-83
2022/12/03 13:16:25;;;;;;;29.45;18.73;;;13.60;58.60;;;;;;6100235;23;20416;-83
2022/12/03 13:19:01;;;;;;;29.98;18.95;;;13.60;58.50;;;;;;6099852;23;20069;-84
2022/12/03 13:21:39;;;;;;;31.17;20.13;;;13.70;58.40;;;;;;6124920;23;20042;-81
2022/12/03 13:24:42;;;;;;;27.70;17.70;;;14.10;57.80;;;;;;6099270;23;20103;-81
2022/12/03 13:27:16;;;;;;;26.35;17.83;;;14.10;57.90;;;;;;6125227;23;20029;-82
2022/12/03 13:29:43;;;;;;;25.75;16.73;;;14.30;57.70;;;;;;6100002;23;20097;-81
2022/12/03 13:32:14;;;;;;;27.10;17.42;;;14.20;57.40;;;;;;6099612;23;20010;-82
2022/12/03 13:34:41;;;;;;;25.42;17.15;;;14.40;57.60;;;;;;6125004;23;20010;-83
2022/12/03 13:37:22;;;;;;;25.20;16.63;;;14.70;57.10;;;;;;6099144;23;20018;-82
2022/12/03 13:39:53;;;;;;;26.52;17.00;;;14.80;56.60;;;;;;6099665;23;20014;-82
2022/12/03 13:42:37;;;;;;;26.30;16.27;;;15.00;56.60;;;;;;6114359;23;20078;-82
2022/12/03 13:45:24;;;;;;;25.35;15.48;;;14.90;56.70;;;;;;6129204;23;20010;-83
2022/12/03 13:47:57;;;;;;;25.80;15.95;;;15.00;56.40;;;;;;6129269;23;20438;-82
2022/12/03 13:50:44;;;;;;;25.33;16.05;;;15.20;56.50;;;;;;6128827;23;20006;-82
2022/12/03 13:53:10;;;;;;;25.33;16.50;;;15.20;56.10;;;;;;6128973;23;20391;-83
2022/12/03 13:55:41;;;;;;;24.90;17.25;;;15.20;56.50;;;;;;6128312;23;20423;-81
2022/12/03 13:58:07;;;;;;;28.15;16.77;;;15.30;56.40;;;;;;6128374;23;20010;-81
2022/12/03 14:00:33;;;;;;;27.20;17.20;;;15.40;55.90;;;;;;6127473;23;20386;-81
2022/12/03 14:03:17;;;;;;;43.05;27.00;;;15.40;55.80;;;;;;6015030;23;20024;-81
2022/12/03 14:05:42;;;;;;;85.75;49.83;;;15.30;56.30;;;;;;6011700;23;20102;-82
2022/12/03 14:08:08;;;;;;;36.47;23.33;;;15.30;56.20;;;;;;6011596;23;20318;-84
2022/12/03 14:10:34;;;;;;;51.72;33.97;;;15.40;56.30;;;;;;6037906;23;20524;-84
2022/12/03 14:12:59;;;;;;;42.67;28.10;;;15.40;56.10;;;;;;6013217;23;20091;-81
2022/12/03 14:15:25;;;;;;;47.50;29.88;;;15.30;55.90;;;;;;6012835;23;20011;-82
2022/12/03 14:17:51;;;;;;;38.85;25.20;;;15.40;56.00;;;;;;6013091;23;20004;-84
2022/12/03 14:20:18;;;;;;;40.97;23.75;;;15.40;55.90;;;;;;6037167;23;20008;-81
2022/12/03 14:22:43;;;;;;;27.65;18.42;;;15.30;56.10;;;;;;6037599;23;20337;-84
2022/12/03 14:25:09;;;;;;;29.08;18.92;;;15.30;56.10;;;;;;6014421;23;19999;-81
2022/12/03 14:27:35;;;;;;;26.75;17.85;;;15.10;56.50;;;;;;6037637;23;20008;-81
2022/12/03 14:30:01;;;;;;;28.40;19.05;;;15.00;56.50;;;;;;6013442;23;20120;-83
2022/12/03 14:32:30;;;;;;;33.15;19.98;;;14.90;56.70;;;;;;6013518;23;20386;-82
2022/12/03 14:34:56;;;;;;;26.00;17.60;;;15.00;56.80;;;;;;6013857;23;20030;-84
2022/12/03 14:37:21;;;;;;;28.58;18.95;;;15.00;56.80;;;;;;6037280;23;20380;-83
2022/12/03 14:39:47;;;;;;;48.03;28.55;;;15.00;56.80;;;;;;6059158;23;20002;-83
2022/12/03 14:42:13;;;;;;;49.58;29.00;;;15.00;56.50;;;;;;6098624;23;20029;-83
2022/12/03 14:44:43;;;;;;;54.63;31.70;;;15.10;56.70;;;;;;6126382;23;20145;-84
2022/12/03 14:47:09;;;;;;;46.38;27.35;;;15.20;56.50;;;;;;6102019;23;20010;-83
2022/12/03 14:53:10;;;;;;;;;;;15.20;56.60;;;;;;6010916;23;20489;-82
2022/12/03 14:55:36;;;;;;;48.20;26.17;;;15.30;56.30;;;;;;5987164;23;19906;-83
2022/12/03 15:04:32;;;;;;;57.50;32.08;;;15.30;56.40;;;;;;5846213;24;20048;-83
2022/12/03 15:06:57;;;;;;;55.58;31.38;;;15.30;56.50;;;;;;5846269;24;20011;-83
2022/12/03 15:09:23;;;;;;;51.15;29.52;;;15.20;56.20;;;;;;5845120;24;20013;-81
2022/12/03 15:12:01;;;;;;;48.10;27.83;;;15.20;56.60;;;;;;5844643;24;20007;-82
2022/12/03 15:15:15;;;;;;;47.50;28.67;;;15.20;56.50;;;;;;5843067;24;20437;-82
2022/12/03 15:17:44;;;;;;;46.88;27.60;;;15.20;56.10;;;;;;5844292;24;20086;-82
2022/12/03 15:20:10;;;;;;;47.45;28.13;;;15.30;56.10;;;;;;5844543;24;20006;-84
2022/12/03 15:22:36;;;;;;;48.13;28.80;;;15.20;56.30;;;;;;5844455;24;20094;-81
2022/12/03 15:25:29;;;;;;;72.07;40.83;;;15.10;56.60;;;;;;5844047;24;20014;-83
2022/12/03 15:27:55;;;;;;;56.83;31.38;;;15.10;56.60;;;;;;5844708;24;20729;-83
2022/12/03 15:30:21;;;;;;;47.72;28.05;;;15.00;56.70;;;;;;5888319;24;20024;-82
2022/12/03 15:32:47;;;;;;;49.80;30.95;;;15.10;56.70;;;;;;5897763;24;20010;-82
2022/12/03 15:35:16;;;;;;;51.35;30.67;;;15.10;56.60;;;;;;5874346;24;20006;-82
2022/12/03 15:37:43;;;;;;;43.97;27.55;;;15.10;56.50;;;;;;5897342;24;20049;-83
2022/12/03 15:40:10;;;;;;;44.13;25.85;;;15.00;56.50;;;;;;5914174;23;20095;-82
2022/12/03 15:42:35;;;;;;;45.50;24.48;;;14.90;56.90;;;;;;6087614;23;20026;-83
2022/12/03 15:45:01;;;;;;;39.15;24.40;;;14.90;57.10;;;;;;6070925;23;20007;-82
2022/12/03 15:47:27;;;;;;;39.58;23.95;;;14.90;57.00;;;;;;6072769;23;20009;-83
2022/12/03 15:49:52;;;;;;;40.40;24.05;;;14.90;56.70;;;;;;6072587;23;20002;-81
2022/12/03 15:52:18;;;;;;;37.97;23.00;;;14.90;56.80;;;;;;6072149;23;20011;-82
2022/12/03 15:54:44;;;;;;;37.10;21.67;;;14.90;57.00;;;;;;6072712;23;20045;-82
2022/12/03 15:57:11;;;;;;;40.45;24.85;;;14.90;57.00;;;;;;6098357;23;20002;-83
2022/12/03 15:59:37;;;;;;;32.55;20.45;;;14.90;56.90;;;;;;6072296;23;20002;-83
2022/12/03 16:02:03;;;;;;;32.33;19.25;;;14.80;57.10;;;;;;6072703;23;20396;-83
2022/12/03 16:04:28;;;;;;;36.22;21.67;;;14.60;57.20;;;;;;6072386;23;20416;-82
2022/12/03 16:06:54;;;;;;;30.80;19.65;;;14.50;57.60;;;;;;6072281;23;20432;-82
2022/12/03 16:09:20;;;;;;;33.75;20.50;;;14.50;57.40;;;;;;6072792;23;20010;-82
2022/12/03 16:11:45;;;;;;;34.60;21.10;;;14.40;57.40;;;;;;6072730;23;20432;-82
2022/12/03 16:14:11;;;;;;;35.83;20.92;;;14.40;57.50;;;;;;6072827;23;20416;-81
2022/12/03 16:16:37;;;;;;;34.58;20.83;;;14.40;57.20;;;;;;6074715;23;20416;-82
2022/12/03 16:19:02;;;;;;;33.63;19.95;;;14.30;57.60;;;;;;6072829;23;20007;-83
2022/12/03 16:21:28;;;;;;;32.58;19.60;;;14.30;57.50;;;;;;6071998;23;20006;-84
2022/12/03 16:23:54;;;;;;;29.55;19.45;;;14.20;57.70;;;;;;6096542;23;20180;-83
2022/12/03 16:26:21;;;;;;;31.13;19.85;;;14.30;57.40;;;;;;6069699;23;20390;-84
2022/12/03 16:28:49;;;;;;;30.83;18.83;;;14.10;57.70;;;;;;6070234;23;20332;-83
2022/12/03 16:31:15;;;;;;;30.95;18.33;;;13.90;57.90;;;;;;6070097;23;20005;-84
2022/12/03 16:33:40;;;;;;;30.52;17.95;;;13.70;58.10;;;;;;6096290;23;20003;-82
2022/12/03 16:36:06;;;;;;;28.98;17.63;;;13.40;58.70;;;;;;6096366;23;20007;-83
2022/12/03 16:38:32;;;;;;;28.13;17.70;;;13.20;59.10;;;;;;6097134;23;20070;-82
2022/12/03 16:40:58;;;;;;;31.92;19.27;;;12.90;59.60;;;;;;6105670;23;20026;-83
2022/12/03 16:43:23;;;;;;;33.03;19.42;;;12.80;60.00;;;;;;6101004;23;20350;-82
2022/12/03 16:48:21;;;;;;;30.65;19.05;;;12.30;60.90;;;;;;6130446;23;20006;-81
2022/12/03 16:50:47;;;;;;;34.97;19.45;;;12.20;61.10;;;;;;6126887;23;19998;-83
2022/12/03 16:53:13;;;;;;;29.80;18.35;;;12.20;61.10;;;;;;6100913;23;20053;-83
2022/12/03 16:55:39;;;;;;;32.47;20.80;;;12.20;61.10;;;;;;6127000;23;20016;-83
2022/12/03 16:58:05;;;;;;;29.77;18.55;;;12.40;60.90;;;;;;6126877;23;20026;-82
2022/12/03 17:00:31;;;;;;;29.38;18.45;;;12.60;60.00;;;;;;6126697;23;20072;-82
2022/12/03 17:02:57;;;;;;;33.63;19.98;;;12.50;60.10;;;;;;6100776;23;20348;-83
2022/12/03 17:05:26;;;;;;;33.90;20.90;;;12.30;60.40;;;;;;6101168;23;20002;-82
2022/12/03 17:07:54;;;;;;;36.97;21.25;;;12.30;60.80;;;;;;6099951;23;20077;-83
2022/12/03 17:10:19;;;;;;;38.65;22.70;;;12.20;61.10;;;;;;6100863;23;20439;-82
2022/12/03 17:12:45;;;;;;;38.53;23.63;;;12.00;61.40;;;;;;6126951;23;20017;-82
2022/12/03 17:15:11;;;;;;;42.47;25.48;;;11.90;62.00;;;;;;6100222;23;20005;-82